Погода Бекаана 2 недели

Бейрут, Ливан

22 июля-03 августа
  • 22июля
    Сегодня
    +20°
    +36°
    Ясно и безоблачно
    ВремяПогодаТемператураВлажностьДавлениеВетер, м/сВероятность осадков
    00:00Ясно и безоблачно+23°C33 %659 мм1.8 м/с2 %
    03:00Ясно и безоблачно+20°C36 %658 мм1.7 м/с2 %
    06:00Ясно и безоблачно+20°C41 %658 мм1.7 м/с2 %
    09:00Ясно и безоблачно+28°C31 %661 мм1.3 м/с2 %
    12:00Ясно и безоблачно+34°C19 %661 мм3.0 м/с2 %
    15:00Ясно и безоблачно+35°C18 %661 мм4.7 м/с2 %
    18:00Ясно и безоблачно+32°C24 %660 мм4.3 м/с2 %
    21:00Ясно и безоблачно+26°C45 %660 мм2.3 м/с2 %
  • 23июля
    Вторник
    +21°
    +37°
    Ясно и безоблачно
    ВремяПогодаТемператураВлажностьДавлениеВетер, м/сВероятность осадков
    00:00Ясно и безоблачно+22°C46 %659 мм2.2 м/с2 %
    03:00Ясно и безоблачно+20°C48 %658 мм1.8 м/с2 %
    06:00Ясно и безоблачно+20°C46 %658 мм1.3 м/с2 %
    09:00Ясно и безоблачно+29°C30 %660 мм0.8 м/с2 %
    12:00Ясно и безоблачно+34°C19 %661 мм2.3 м/с2 %
    15:00Ясно и безоблачно+36°C19 %660 мм4.3 м/с2 %
    18:00Ясно и безоблачно+32°C34 %659 мм4.3 м/с2 %
    21:00Ясно и безоблачно+27°C46 %659 мм2.2 м/с2 %
  • 24июля
    Среда
    +20°
    +37°
    Ясно и безоблачно
    ВремяПогодаТемператураВлажностьДавлениеВетер, м/сВероятность осадков
    00:00Ясно и безоблачно+24°C48 %658 мм2.2 м/с2 %
    03:00Ясно и безоблачно+22°C44 %656 мм2.0 м/с2 %
    06:00Ясно и безоблачно+22°C42 %656 мм1.9 м/с2 %
    09:00Ясно и безоблачно+30°C28 %658 мм2.1 м/с2 %
    12:00Ясно и безоблачно+35°C20 %658 мм3.5 м/с2 %
    15:00Ясно и безоблачно+35°C17 %658 мм6.1 м/с3 %
    18:00Ясно и безоблачно+31°C22 %657 мм4.6 м/с2 %
    21:00Ясно и безоблачно+26°C38 %657 мм2.6 м/с2 %
  • 25июля
    Четверг
    +19°
    +34°
    Ясно и безоблачно
    ВремяПогодаТемператураВлажностьДавлениеВетер, м/сВероятность осадков
    00:00Ясно и безоблачно+22°C35 %656 мм2.5 м/с2 %
    03:00Ясно и безоблачно+21°C39 %655 мм2.4 м/с2 %
    06:00Ясно и безоблачно+20°C39 %655 мм2.3 м/с2 %
    09:00Ясно и безоблачно+27°C29 %657 мм2.2 м/с2 %
    12:00Ясно и безоблачно+32°C20 %658 мм3.4 м/с2 %
    15:00Ясно и безоблачно+33°C20 %658 мм4.8 м/с2 %
    18:00Ясно и безоблачно+30°C27 %657 мм4.6 м/с2 %
    21:00Ясно и безоблачно+25°C38 %657 мм2.8 м/с2 %
Мы используем cookies
Соглашаюсь